sensor_id;sensor_type;location;lat;lon;timestamp;P1;durP1;ratioP1;P2;durP2;ratioP2
67528;SDS011;54366;51.980;5.856;2022-07-05T00:00:38;3.30;;;1.73;;
67528;SDS011;54366;51.980;5.856;2022-07-05T00:03:04;2.92;;;1.40;;
67528;SDS011;54366;51.980;5.856;2022-07-05T00:05:30;1.75;;;1.65;;
67528;SDS011;54366;51.980;5.856;2022-07-05T00:07:57;1.55;;;1.45;;
67528;SDS011;54366;51.980;5.856;2022-07-05T00:10:23;2.22;;;1.40;;
67528;SDS011;54366;51.980;5.856;2022-07-05T00:12:49;2.50;;;1.50;;
67528;SDS011;54366;51.980;5.856;2022-07-05T00:15:15;3.15;;;1.60;;
67528;SDS011;54366;51.980;5.856;2022-07-05T00:17:42;2.88;;;1.50;;
67528;SDS011;54366;51.980;5.856;2022-07-05T00:20:08;1.92;;;1.73;;
67528;SDS011;54366;51.980;5.856;2022-07-05T00:22:34;3.30;;;1.48;;
67528;SDS011;54366;51.980;5.856;2022-07-05T00:25:01;2.65;;;1.80;;
67528;SDS011;54366;51.980;5.856;2022-07-05T00:27:27;2.13;;;1.42;;
67528;SDS011;54366;51.980;5.856;2022-07-05T00:29:53;1.83;;;1.40;;
67528;SDS011;54366;51.980;5.856;2022-07-05T00:32:19;2.08;;;1.73;;
67528;SDS011;54366;51.980;5.856;2022-07-05T00:34:46;3.25;;;1.77;;
67528;SDS011;54366;51.980;5.856;2022-07-05T00:37:12;2.53;;;1.45;;
67528;SDS011;54366;51.980;5.856;2022-07-05T00:39:38;1.92;;;1.38;;
67528;SDS011;54366;51.980;5.856;2022-07-05T00:42:05;1.63;;;1.45;;
67528;SDS011;54366;51.980;5.856;2022-07-05T00:44:33;2.17;;;1.45;;
67528;SDS011;54366;51.980;5.856;2022-07-05T00:47:02;2.35;;;1.40;;
67528;SDS011;54366;51.980;5.856;2022-07-05T00:49:29;1.50;;;1.40;;
67528;SDS011;54366;51.980;5.856;2022-07-05T00:51:56;2.05;;;1.70;;
67528;SDS011;54366;51.980;5.856;2022-07-05T00:54:24;1.85;;;1.50;;
67528;SDS011;54366;51.980;5.856;2022-07-05T00:56:51;1.20;;;1.10;;
67528;SDS011;54366;51.980;5.856;2022-07-05T00:59:18;2.38;;;1.38;;
67528;SDS011;54366;51.980;5.856;2022-07-05T01:01:44;2.03;;;1.50;;
67528;SDS011;54366;51.980;5.856;2022-07-05T01:04:11;2.10;;;1.40;;
67528;SDS011;54366;51.980;5.856;2022-07-05T01:06:39;2.53;;;1.50;;
67528;SDS011;54366;51.980;5.856;2022-07-05T01:09:08;1.42;;;1.30;;
67528;SDS011;54366;51.980;5.856;2022-07-05T01:11:42;1.60;;;1.50;;
67528;SDS011;54366;51.980;5.856;2022-07-05T01:14:14;2.20;;;1.45;;
67528;SDS011;54366;51.980;5.856;2022-07-05T01:16:43;3.95;;;1.50;;
67528;SDS011;54366;51.980;5.856;2022-07-05T01:19:10;1.83;;;1.73;;
67528;SDS011;54366;51.980;5.856;2022-07-05T01:21:41;2.35;;;1.63;;
67528;SDS011;54366;51.980;5.856;2022-07-05T01:24:13;1.50;;;1.40;;
67528;SDS011;54366;51.980;5.856;2022-07-05T01:26:41;1.38;;;1.27;;
67528;SDS011;54366;51.980;5.856;2022-07-05T01:29:10;1.67;;;1.42;;
67528;SDS011;54366;51.980;5.856;2022-07-05T01:31:37;2.10;;;1.70;;
67528;SDS011;54366;51.980;5.856;2022-07-05T01:34:05;1.50;;;1.40;;
67528;SDS011;54366;51.980;5.856;2022-07-05T01:36:32;2.50;;;1.40;;
67528;SDS011;54366;51.980;5.856;2022-07-05T01:39:00;1.42;;;1.33;;
67528;SDS011;54366;51.980;5.856;2022-07-05T01:41:28;2.20;;;1.60;;
67528;SDS011;54366;51.980;5.856;2022-07-05T01:43:55;1.85;;;1.65;;
67528;SDS011;54366;51.980;5.856;2022-07-05T01:46:21;1.83;;;1.20;;
67528;SDS011;54366;51.980;5.856;2022-07-05T01:48:51;2.33;;;1.50;;
67528;SDS011;54366;51.980;5.856;2022-07-05T01:51:26;1.65;;;1.50;;
67528;SDS011;54366;51.980;5.856;2022-07-05T01:54:12;2.30;;;1.17;;
67528;SDS011;54366;51.980;5.856;2022-07-05T01:56:39;2.28;;;1.45;;
67528;SDS011;54366;51.980;5.856;2022-07-05T01:59:05;1.92;;;1.23;;
67528;SDS011;54366;51.980;5.856;2022-07-05T02:01:37;3.40;;;1.77;;
67528;SDS011;54366;51.980;5.856;2022-07-05T02:04:05;1.77;;;1.60;;
67528;SDS011;54366;51.980;5.856;2022-07-05T02:06:33;2.80;;;1.85;;
67528;SDS011;54366;51.980;5.856;2022-07-05T02:09:02;2.05;;;1.50;;
67528;SDS011;54366;51.980;5.856;2022-07-05T02:11:30;1.88;;;1.52;;
67528;SDS011;54366;51.980;5.856;2022-07-05T02:13:57;2.00;;;1.40;;
67528;SDS011;54366;51.980;5.856;2022-07-05T02:16:25;1.88;;;1.35;;
67528;SDS011;54366;51.980;5.856;2022-07-05T02:18:53;2.08;;;1.58;;
67528;SDS011;54366;51.980;5.856;2022-07-05T02:21:21;1.75;;;1.50;;
67528;SDS011;54366;51.980;5.856;2022-07-05T02:23:50;1.98;;;1.48;;
67528;SDS011;54366;51.980;5.856;2022-07-05T02:26:17;3.15;;;2.25;;
67528;SDS011;54366;51.980;5.856;2022-07-05T02:28:44;2.67;;;1.90;;
67528;SDS011;54366;51.980;5.856;2022-07-05T02:31:12;2.15;;;1.90;;
67528;SDS011;54366;51.980;5.856;2022-07-05T02:33:40;2.67;;;2.22;;
67528;SDS011;54366;51.980;5.856;2022-07-05T02:36:07;2.17;;;1.88;;
67528;SDS011;54366;51.980;5.856;2022-07-05T02:38:38;1.65;;;1.52;;
67528;SDS011;54366;51.980;5.856;2022-07-05T02:41:06;1.77;;;1.40;;
67528;SDS011;54366;51.980;5.856;2022-07-05T02:43:34;1.80;;;1.70;;
67528;SDS011;54366;51.980;5.856;2022-07-05T02:46:04;3.05;;;1.92;;
67528;SDS011;54366;51.980;5.856;2022-07-05T02:48:32;2.05;;;1.35;;
67528;SDS011;54366;51.980;5.856;2022-07-05T02:50:59;2.22;;;1.70;;
67528;SDS011;54366;51.980;5.856;2022-07-05T02:53:27;1.90;;;1.65;;
67528;SDS011;54366;51.980;5.856;2022-07-05T02:55:54;2.13;;;1.40;;
67528;SDS011;54366;51.980;5.856;2022-07-05T02:58:21;1.45;;;1.35;;
67528;SDS011;54366;51.980;5.856;2022-07-05T03:00:49;2.47;;;1.35;;
67528;SDS011;54366;51.980;5.856;2022-07-05T03:03:17;2.03;;;1.20;;
67528;SDS011;54366;51.980;5.856;2022-07-05T03:05:43;1.98;;;0.85;;
67528;SDS011;54366;51.980;5.856;2022-07-05T03:08:10;1.10;;;1.00;;
67528;SDS011;54366;51.980;5.856;2022-07-05T03:10:39;1.00;;;0.80;;
67528;SDS011;54366;51.980;5.856;2022-07-05T03:13:06;1.10;;;1.00;;
67528;SDS011;54366;51.980;5.856;2022-07-05T03:15:33;1.38;;;1.27;;
67528;SDS011;54366;51.980;5.856;2022-07-05T03:18:01;2.03;;;1.15;;
67528;SDS011;54366;51.980;5.856;2022-07-05T03:20:30;3.08;;;1.45;;
67528;SDS011;54366;51.980;5.856;2022-07-05T03:22:56;2.10;;;1.10;;
67528;SDS011;54366;51.980;5.856;2022-07-05T03:25:29;1.58;;;1.40;;
67528;SDS011;54366;51.980;5.856;2022-07-05T03:27:57;1.42;;;1.13;;
67528;SDS011;54366;51.980;5.856;2022-07-05T03:30:23;1.80;;;1.40;;
67528;SDS011;54366;51.980;5.856;2022-07-05T03:32:50;1.33;;;1.20;;
67528;SDS011;54366;51.980;5.856;2022-07-05T03:35:17;1.17;;;1.00;;
67528;SDS011;54366;51.980;5.856;2022-07-05T03:37:47;1.55;;;1.30;;
67528;SDS011;54366;51.980;5.856;2022-07-05T03:40:14;1.40;;;1.30;;
67528;SDS011;54366;51.980;5.856;2022-07-05T03:42:40;1.88;;;1.10;;
67528;SDS011;54366;51.980;5.856;2022-07-05T03:45:07;1.85;;;1.40;;
67528;SDS011;54366;51.980;5.856;2022-07-05T03:47:37;1.30;;;1.17;;
67528;SDS011;54366;51.980;5.856;2022-07-05T03:50:06;1.40;;;1.15;;
67528;SDS011;54366;51.980;5.856;2022-07-05T03:52:33;2.08;;;1.30;;
67528;SDS011;54366;51.980;5.856;2022-07-05T03:55:00;2.50;;;1.40;;
67528;SDS011;54366;51.980;5.856;2022-07-05T03:57:26;1.20;;;1.10;;
67528;SDS011;54366;51.980;5.856;2022-07-05T03:59:54;1.27;;;1.17;;
67528;SDS011;54366;51.980;5.856;2022-07-05T04:02:20;1.58;;;1.33;;
67528;SDS011;54366;51.980;5.856;2022-07-05T04:04:47;2.10;;;1.23;;
67528;SDS011;54366;51.980;5.856;2022-07-05T04:07:13;0.82;;;0.82;;
67528;SDS011;54366;51.980;5.856;2022-07-05T04:09:40;1.65;;;0.90;;
67528;SDS011;54366;51.980;5.856;2022-07-05T04:12:07;1.42;;;0.85;;
67528;SDS011;54366;51.980;5.856;2022-07-05T04:14:35;1.35;;;1.00;;
67528;SDS011;54366;51.980;5.856;2022-07-05T04:17:02;1.15;;;0.95;;
67528;SDS011;54366;51.980;5.856;2022-07-05T04:19:29;1.77;;;0.90;;
67528;SDS011;54366;51.980;5.856;2022-07-05T04:21:56;1.13;;;0.93;;
67528;SDS011;54366;51.980;5.856;2022-07-05T04:24:23;1.50;;;1.40;;
67528;SDS011;54366;51.980;5.856;2022-07-05T04:26:49;1.60;;;1.50;;
67528;SDS011;54366;51.980;5.856;2022-07-05T04:29:16;3.10;;;1.92;;
67528;SDS011;54366;51.980;5.856;2022-07-05T04:31:42;1.92;;;1.80;;
67528;SDS011;54366;51.980;5.856;2022-07-05T04:34:08;1.20;;;1.10;;
67528;SDS011;54366;51.980;5.856;2022-07-05T04:36:38;1.92;;;1.60;;
67528;SDS011;54366;51.980;5.856;2022-07-05T04:39:07;1.83;;;1.70;;
67528;SDS011;54366;51.980;5.856;2022-07-05T04:41:37;2.00;;;1.60;;
67528;SDS011;54366;51.980;5.856;2022-07-05T04:44:06;2.10;;;1.65;;
67528;SDS011;54366;51.980;5.856;2022-07-05T04:46:32;3.17;;;2.15;;
67528;SDS011;54366;51.980;5.856;2022-07-05T04:48:59;2.55;;;2.30;;
67528;SDS011;54366;51.980;5.856;2022-07-05T04:51:26;3.15;;;2.42;;
67528;SDS011;54366;51.980;5.856;2022-07-05T04:53:52;2.83;;;2.50;;
67528;SDS011;54366;51.980;5.856;2022-07-05T04:56:18;3.00;;;2.33;;
67528;SDS011;54366;51.980;5.856;2022-07-05T04:58:45;4.25;;;2.38;;
67528;SDS011;54366;51.980;5.856;2022-07-05T05:01:11;4.60;;;3.00;;
67528;SDS011;54366;51.980;5.856;2022-07-05T05:03:37;3.50;;;2.53;;
67528;SDS011;54366;51.980;5.856;2022-07-05T05:06:03;2.58;;;2.40;;
67528;SDS011;54366;51.980;5.856;2022-07-05T05:08:29;3.10;;;2.80;;
67528;SDS011;54366;51.980;5.856;2022-07-05T05:10:56;3.50;;;3.20;;
67528;SDS011;54366;51.980;5.856;2022-07-05T05:13:22;4.50;;;4.10;;
67528;SDS011;54366;51.980;5.856;2022-07-05T05:15:48;5.15;;;4.65;;
67528;SDS011;54366;51.980;5.856;2022-07-05T05:18:14;4.88;;;4.43;;
67528;SDS011;54366;51.980;5.856;2022-07-05T05:20:40;4.50;;;3.97;;
67528;SDS011;54366;51.980;5.856;2022-07-05T05:23:07;5.13;;;4.63;;
67528;SDS011;54366;51.980;5.856;2022-07-05T05:25:33;5.10;;;4.70;;
67528;SDS011;54366;51.980;5.856;2022-07-05T05:28:00;5.10;;;4.60;;
67528;SDS011;54366;51.980;5.856;2022-07-05T05:30:26;5.47;;;4.32;;
67528;SDS011;54366;51.980;5.856;2022-07-05T05:32:52;4.43;;;4.13;;
67528;SDS011;54366;51.980;5.856;2022-07-05T05:35:19;7.28;;;6.50;;
67528;SDS011;54366;51.980;5.856;2022-07-05T05:37:51;7.28;;;6.63;;
67528;SDS011;54366;51.980;5.856;2022-07-05T05:40:21;6.90;;;6.30;;
67528;SDS011;54366;51.980;5.856;2022-07-05T05:42:48;7.30;;;6.50;;
67528;SDS011;54366;51.980;5.856;2022-07-05T05:45:16;7.28;;;6.68;;
67528;SDS011;54366;51.980;5.856;2022-07-05T05:47:43;6.75;;;6.25;;
67528;SDS011;54366;51.980;5.856;2022-07-05T05:50:10;9.27;;;8.38;;
67528;SDS011;54366;51.980;5.856;2022-07-05T05:52:37;9.88;;;8.88;;
67528;SDS011;54366;51.980;5.856;2022-07-05T05:55:03;9.40;;;8.50;;
67528;SDS011;54366;51.980;5.856;2022-07-05T05:57:31;10.57;;;9.45;;
67528;SDS011;54366;51.980;5.856;2022-07-05T05:59:59;10.80;;;9.70;;
67528;SDS011;54366;51.980;5.856;2022-07-05T06:02:25;9.77;;;8.98;;
67528;SDS011;54366;51.980;5.856;2022-07-05T06:04:52;11.05;;;9.82;;
67528;SDS011;54366;51.980;5.856;2022-07-05T06:07:18;10.30;;;9.30;;
67528;SDS011;54366;51.980;5.856;2022-07-05T06:09:44;11.13;;;9.88;;
67528;SDS011;54366;51.980;5.856;2022-07-05T06:12:10;8.77;;;7.97;;
67528;SDS011;54366;51.980;5.856;2022-07-05T06:14:36;11.35;;;8.30;;
67528;SDS011;54366;51.980;5.856;2022-07-05T06:17:03;9.48;;;8.57;;
67528;SDS011;54366;51.980;5.856;2022-07-05T06:19:29;10.10;;;9.02;;
67528;SDS011;54366;51.980;5.856;2022-07-05T06:21:55;10.65;;;9.40;;
67528;SDS011;54366;51.980;5.856;2022-07-05T06:24:21;10.07;;;9.07;;
67528;SDS011;54366;51.980;5.856;2022-07-05T06:26:48;10.38;;;9.35;;
67528;SDS011;54366;51.980;5.856;2022-07-05T06:29:14;10.45;;;9.45;;
67528;SDS011;54366;51.980;5.856;2022-07-05T06:31:40;10.85;;;9.85;;
67528;SDS011;54366;51.980;5.856;2022-07-05T06:34:06;8.27;;;7.47;;
67528;SDS011;54366;51.980;5.856;2022-07-05T06:36:33;9.00;;;8.20;;
67528;SDS011;54366;51.980;5.856;2022-07-05T06:38:59;8.65;;;7.95;;
67528;SDS011;54366;51.980;5.856;2022-07-05T06:41:25;8.13;;;7.32;;
67528;SDS011;54366;51.980;5.856;2022-07-05T06:43:51;10.32;;;9.32;;
67528;SDS011;54366;51.980;5.856;2022-07-05T06:46:23;10.45;;;9.45;;
67528;SDS011;54366;51.980;5.856;2022-07-05T06:48:50;10.52;;;9.45;;
67528;SDS011;54366;51.980;5.856;2022-07-05T06:51:16;10.77;;;9.68;;
67528;SDS011;54366;51.980;5.856;2022-07-05T06:53:42;12.07;;;10.93;;
67528;SDS011;54366;51.980;5.856;2022-07-05T06:56:08;10.80;;;9.70;;
67528;SDS011;54366;51.980;5.856;2022-07-05T06:58:34;12.20;;;11.00;;
67528;SDS011;54366;51.980;5.856;2022-07-05T07:01:01;9.25;;;8.45;;
67528;SDS011;54366;51.980;5.856;2022-07-05T07:03:27;8.88;;;8.07;;
67528;SDS011;54366;51.980;5.856;2022-07-05T07:05:53;9.75;;;8.15;;
67528;SDS011;54366;51.980;5.856;2022-07-05T07:08:19;6.75;;;6.05;;
67528;SDS011;54366;51.980;5.856;2022-07-05T07:11:04;7.93;;;7.03;;
67528;SDS011;54366;51.980;5.856;2022-07-05T07:13:31;7.22;;;6.35;;
67528;SDS011;54366;51.980;5.856;2022-07-05T07:15:57;6.65;;;6.05;;
67528;SDS011;54366;51.980;5.856;2022-07-05T07:18:23;6.70;;;5.65;;
67528;SDS011;54366;51.980;5.856;2022-07-05T07:20:49;6.47;;;5.75;;
67528;SDS011;54366;51.980;5.856;2022-07-05T07:23:15;5.78;;;5.18;;
67528;SDS011;54366;51.980;5.856;2022-07-05T07:25:42;6.32;;;5.43;;
67528;SDS011;54366;51.980;5.856;2022-07-05T07:28:08;5.90;;;5.30;;
67528;SDS011;54366;51.980;5.856;2022-07-05T07:30:34;4.82;;;4.18;;
67528;SDS011;54366;51.980;5.856;2022-07-05T07:33:01;5.80;;;5.00;;
67528;SDS011;54366;51.980;5.856;2022-07-05T07:35:27;5.68;;;5.18;;
67528;SDS011;54366;51.980;5.856;2022-07-05T07:37:53;5.47;;;5.05;;
67528;SDS011;54366;51.980;5.856;2022-07-05T07:40:19;5.93;;;5.32;;
67528;SDS011;54366;51.980;5.856;2022-07-05T07:42:46;5.57;;;4.90;;
67528;SDS011;54366;51.980;5.856;2022-07-05T07:45:12;5.72;;;5.22;;
67528;SDS011;54366;51.980;5.856;2022-07-05T07:47:38;5.35;;;4.85;;
67528;SDS011;54366;51.980;5.856;2022-07-05T07:50:05;5.53;;;4.18;;
67528;SDS011;54366;51.980;5.856;2022-07-05T07:52:32;5.45;;;4.82;;
67528;SDS011;54366;51.980;5.856;2022-07-05T07:55:02;5.03;;;4.45;;
67528;SDS011;54366;51.980;5.856;2022-07-05T07:57:29;4.75;;;4.15;;
67528;SDS011;54366;51.980;5.856;2022-07-05T07:59:56;4.55;;;4.15;;
67528;SDS011;54366;51.980;5.856;2022-07-05T08:02:22;6.38;;;4.95;;
67528;SDS011;54366;51.980;5.856;2022-07-05T08:04:49;4.45;;;3.97;;
67528;SDS011;54366;51.980;5.856;2022-07-05T08:07:16;3.47;;;2.97;;
67528;SDS011;54366;51.980;5.856;2022-07-05T08:09:44;4.55;;;3.60;;
67528;SDS011;54366;51.980;5.856;2022-07-05T08:12:10;5.40;;;4.03;;
67528;SDS011;54366;51.980;5.856;2022-07-05T08:14:37;4.40;;;4.00;;
67528;SDS011;54366;51.980;5.856;2022-07-05T08:17:03;4.47;;;4.10;;
67528;SDS011;54366;51.980;5.856;2022-07-05T08:19:33;4.03;;;3.60;;
67528;SDS011;54366;51.980;5.856;2022-07-05T08:22:18;2.63;;;2.30;;
67528;SDS011;54366;51.980;5.856;2022-07-05T08:24:45;5.28;;;3.75;;
67528;SDS011;54366;51.980;5.856;2022-07-05T08:27:11;3.40;;;3.10;;
67528;SDS011;54366;51.980;5.856;2022-07-05T08:29:37;3.92;;;3.17;;
67528;SDS011;54366;51.980;5.856;2022-07-05T08:32:04;4.28;;;3.38;;
67528;SDS011;54366;51.980;5.856;2022-07-05T08:34:31;4.43;;;4.03;;
67528;SDS011;54366;51.980;5.856;2022-07-05T08:36:58;5.22;;;3.92;;
67528;SDS011;54366;51.980;5.856;2022-07-05T08:39:24;5.07;;;3.63;;
67528;SDS011;54366;51.980;5.856;2022-07-05T08:41:50;5.10;;;3.75;;
67528;SDS011;54366;51.980;5.856;2022-07-05T08:44:18;4.00;;;2.80;;
67528;SDS011;54366;51.980;5.856;2022-07-05T08:46:46;3.63;;;3.17;;
67528;SDS011;54366;51.980;5.856;2022-07-05T08:49:13;4.22;;;3.60;;
67528;SDS011;54366;51.980;5.856;2022-07-05T08:51:41;4.82;;;3.67;;
67528;SDS011;54366;51.980;5.856;2022-07-05T08:54:08;3.88;;;3.50;;
67528;SDS011;54366;51.980;5.856;2022-07-05T08:56:37;3.55;;;2.95;;
67528;SDS011;54366;51.980;5.856;2022-07-05T08:59:06;3.85;;;3.47;;
67528;SDS011;54366;51.980;5.856;2022-07-05T09:01:32;4.38;;;3.33;;
67528;SDS011;54366;51.980;5.856;2022-07-05T09:04:00;3.85;;;3.50;;
67528;SDS011;54366;51.980;5.856;2022-07-05T09:06:30;5.32;;;3.70;;
67528;SDS011;54366;51.980;5.856;2022-07-05T09:08:58;4.32;;;3.95;;
67528;SDS011;54366;51.980;5.856;2022-07-05T09:11:28;5.57;;;5.05;;
67528;SDS011;54366;51.980;5.856;2022-07-05T09:14:02;4.22;;;3.88;;
67528;SDS011;54366;51.980;5.856;2022-07-05T09:16:30;3.75;;;3.45;;
67528;SDS011;54366;51.980;5.856;2022-07-05T09:19:04;3.35;;;2.95;;
67528;SDS011;54366;51.980;5.856;2022-07-05T09:21:32;2.90;;;2.20;;
67528;SDS011;54366;51.980;5.856;2022-07-05T09:29:19;4.82;;;4.43;;
67528;SDS011;54366;51.980;5.856;2022-07-05T09:31:49;3.53;;;3.20;;
67528;SDS011;54366;51.980;5.856;2022-07-05T09:34:17;2.80;;;2.60;;
67528;SDS011;54366;51.980;5.856;2022-07-05T09:42:11;3.25;;;2.60;;
67528;SDS011;54366;51.980;5.856;2022-07-05T09:44:55;2.72;;;2.47;;
67528;SDS011;54366;51.980;5.856;2022-07-05T09:47:24;4.07;;;3.78;;
67528;SDS011;54366;51.980;5.856;2022-07-05T09:49:56;4.45;;;3.90;;
67528;SDS011;54366;51.980;5.856;2022-07-05T09:52:30;4.75;;;4.00;;
67528;SDS011;54366;51.980;5.856;2022-07-05T09:57:33;5.60;;;5.10;;
67528;SDS011;54366;51.980;5.856;2022-07-05T10:00:03;5.00;;;4.60;;
67528;SDS011;54366;51.980;5.856;2022-07-05T10:07:34;5.60;;;4.63;;
67528;SDS011;54366;51.980;5.856;2022-07-05T10:10:07;5.50;;;4.80;;
67528;SDS011;54366;51.980;5.856;2022-07-05T10:12:35;3.90;;;3.60;;
67528;SDS011;54366;51.980;5.856;2022-07-05T10:15:02;4.72;;;3.60;;
67528;SDS011;54366;51.980;5.856;2022-07-05T10:17:30;3.95;;;3.63;;
67528;SDS011;54366;51.980;5.856;2022-07-05T10:20:02;5.13;;;4.10;;
67528;SDS011;54366;51.980;5.856;2022-07-05T10:22:32;4.22;;;3.83;;
67528;SDS011;54366;51.980;5.856;2022-07-05T10:24:59;6.20;;;4.78;;
67528;SDS011;54366;51.980;5.856;2022-07-05T10:27:26;4.50;;;3.78;;
67528;SDS011;54366;51.980;5.856;2022-07-05T10:29:54;3.88;;;3.47;;
67528;SDS011;54366;51.980;5.856;2022-07-05T10:32:23;4.63;;;3.45;;
67528;SDS011;54366;51.980;5.856;2022-07-05T10:34:50;3.85;;;3.25;;
67528;SDS011;54366;51.980;5.856;2022-07-05T10:37:17;3.70;;;3.00;;
67528;SDS011;54366;51.980;5.856;2022-07-05T10:39:44;3.15;;;2.40;;
67528;SDS011;54366;51.980;5.856;2022-07-05T10:42:11;2.35;;;2.17;;
67528;SDS011;54366;51.980;5.856;2022-07-05T10:44:37;3.55;;;2.38;;
67528;SDS011;54366;51.980;5.856;2022-07-05T10:47:07;3.15;;;2.63;;
67528;SDS011;54366;51.980;5.856;2022-07-05T10:49:37;2.50;;;2.30;;
67528;SDS011;54366;51.980;5.856;2022-07-05T10:52:04;3.40;;;2.30;;
67528;SDS011;54366;51.980;5.856;2022-07-05T10:54:30;2.35;;;2.10;;
67528;SDS011;54366;51.980;5.856;2022-07-05T11:00:04;3.38;;;2.90;;
67528;SDS011;54366;51.980;5.856;2022-07-05T11:02:35;2.55;;;2.30;;
67528;SDS011;54366;51.980;5.856;2022-07-05T11:05:02;2.58;;;2.03;;
67528;SDS011;54366;51.980;5.856;2022-07-05T11:10:27;4.30;;;2.40;;
67528;SDS011;54366;51.980;5.856;2022-07-05T11:12:57;2.65;;;2.45;;
67528;SDS011;54366;51.980;5.856;2022-07-05T11:15:23;2.38;;;2.00;;
67528;SDS011;54366;51.980;5.856;2022-07-05T11:17:49;3.70;;;2.10;;
67528;SDS011;54366;51.980;5.856;2022-07-05T11:20:16;4.53;;;1.75;;
67528;SDS011;54366;51.980;5.856;2022-07-05T11:23:03;2.22;;;1.25;;
67528;SDS011;54366;51.980;5.856;2022-07-05T11:25:29;3.13;;;1.33;;
67528;SDS011;54366;51.980;5.856;2022-07-05T11:27:59;1.55;;;1.00;;
67528;SDS011;54366;51.980;5.856;2022-07-05T11:30:55;1.05;;;0.95;;
67528;SDS011;54366;51.980;5.856;2022-07-05T11:33:46;1.33;;;0.75;;
67528;SDS011;54366;51.980;5.856;2022-07-05T11:36:24;0.98;;;0.88;;
67528;SDS011;54366;51.980;5.856;2022-07-05T11:41:41;1.13;;;0.70;;
67528;SDS011;54366;51.980;5.856;2022-07-05T11:44:10;2.92;;;0.70;;
67528;SDS011;54366;51.980;5.856;2022-07-05T11:46:36;0.80;;;0.60;;
67528;SDS011;54366;51.980;5.856;2022-07-05T11:49:02;1.63;;;0.80;;
67528;SDS011;54366;51.980;5.856;2022-07-05T11:51:29;0.90;;;0.60;;
67528;SDS011;54366;51.980;5.856;2022-07-05T11:53:55;0.82;;;0.40;;
67528;SDS011;54366;51.980;5.856;2022-07-05T11:56:22;2.30;;;0.82;;
67528;SDS011;54366;51.980;5.856;2022-07-05T11:58:48;0.52;;;0.40;;
67528;SDS011;54366;51.980;5.856;2022-07-05T12:01:14;1.67;;;0.50;;
67528;SDS011;54366;51.980;5.856;2022-07-05T12:03:40;1.88;;;0.63;;
67528;SDS011;54366;51.980;5.856;2022-07-05T12:06:18;1.92;;;0.60;;
67528;SDS011;54366;51.980;5.856;2022-07-05T12:08:46;0.50;;;0.50;;
67528;SDS011;54366;51.980;5.856;2022-07-05T12:11:12;1.85;;;0.68;;
67528;SDS011;54366;51.980;5.856;2022-07-05T12:13:57;0.52;;;0.40;;
67528;SDS011;54366;51.980;5.856;2022-07-05T12:16:24;1.23;;;0.40;;
67528;SDS011;54366;51.980;5.856;2022-07-05T12:18:52;2.15;;;0.70;;
67528;SDS011;54366;51.980;5.856;2022-07-05T12:21:24;1.10;;;0.50;;
67528;SDS011;54366;51.980;5.856;2022-07-05T12:23:51;2.55;;;0.60;;
67528;SDS011;54366;51.980;5.856;2022-07-05T12:26:18;2.45;;;0.70;;
67528;SDS011;54366;51.980;5.856;2022-07-05T12:28:45;1.35;;;0.50;;
67528;SDS011;54366;51.980;5.856;2022-07-05T12:33:45;1.83;;;0.47;;
67528;SDS011;54366;51.980;5.856;2022-07-05T12:36:13;1.65;;;0.40;;
67528;SDS011;54366;51.980;5.856;2022-07-05T12:38:48;1.40;;;0.40;;
67528;SDS011;54366;51.980;5.856;2022-07-05T12:41:21;1.13;;;0.50;;
67528;SDS011;54366;51.980;5.856;2022-07-05T12:43:52;1.23;;;0.60;;
67528;SDS011;54366;51.980;5.856;2022-07-05T12:46:19;2.80;;;0.52;;
67528;SDS011;54366;51.980;5.856;2022-07-05T12:48:53;2.70;;;0.50;;
67528;SDS011;54366;51.980;5.856;2022-07-05T12:51:33;1.10;;;0.50;;
67528;SDS011;54366;51.980;5.856;2022-07-05T12:54:02;1.58;;;0.60;;
67528;SDS011;54366;51.980;5.856;2022-07-05T12:57:07;1.25;;;0.60;;
67528;SDS011;54366;51.980;5.856;2022-07-05T13:00:05;1.65;;;0.40;;
67528;SDS011;54366;51.980;5.856;2022-07-05T13:02:34;1.20;;;0.50;;
67528;SDS011;54366;51.980;5.856;2022-07-05T13:05:05;1.83;;;0.50;;
67528;SDS011;54366;51.980;5.856;2022-07-05T13:07:41;2.60;;;1.27;;
67528;SDS011;54366;51.980;5.856;2022-07-05T13:12:46;4.28;;;1.30;;
67528;SDS011;54366;51.980;5.856;2022-07-05T13:15:13;2.08;;;0.50;;
67528;SDS011;54366;51.980;5.856;2022-07-05T13:17:40;2.78;;;0.82;;
67528;SDS011;54366;51.980;5.856;2022-07-05T13:20:07;2.08;;;0.70;;
67528;SDS011;54366;51.980;5.856;2022-07-05T13:22:34;2.08;;;0.52;;
67528;SDS011;54366;51.980;5.856;2022-07-05T13:25:00;2.38;;;0.70;;
67528;SDS011;54366;51.980;5.856;2022-07-05T13:27:27;3.00;;;0.80;;
67528;SDS011;54366;51.980;5.856;2022-07-05T13:29:54;2.90;;;0.70;;
67528;SDS011;54366;51.980;5.856;2022-07-05T13:32:20;1.23;;;0.63;;
67528;SDS011;54366;51.980;5.856;2022-07-05T13:34:47;1.58;;;0.52;;
67528;SDS011;54366;51.980;5.856;2022-07-05T13:37:14;1.98;;;0.32;;
67528;SDS011;54366;51.980;5.856;2022-07-05T13:39:41;1.80;;;0.50;;
67528;SDS011;54366;51.980;5.856;2022-07-05T13:42:07;2.33;;;0.60;;
67528;SDS011;54366;51.980;5.856;2022-07-05T13:44:33;1.73;;;0.30;;
67528;SDS011;54366;51.980;5.856;2022-07-05T13:47:00;2.67;;;0.60;;
67528;SDS011;54366;51.980;5.856;2022-07-05T13:49:26;2.17;;;0.60;;
67528;SDS011;54366;51.980;5.856;2022-07-05T13:51:52;3.08;;;0.60;;
67528;SDS011;54366;51.980;5.856;2022-07-05T13:54:18;1.90;;;0.60;;
67528;SDS011;54366;51.980;5.856;2022-07-05T13:56:45;3.45;;;0.40;;
67528;SDS011;54366;51.980;5.856;2022-07-05T13:59:11;1.65;;;0.40;;
67528;SDS011;54366;51.980;5.856;2022-07-05T14:01:37;1.20;;;0.50;;
67528;SDS011;54366;51.980;5.856;2022-07-05T14:04:04;1.42;;;0.63;;
67528;SDS011;54366;51.980;5.856;2022-07-05T14:06:31;0.60;;;0.50;;
67528;SDS011;54366;51.980;5.856;2022-07-05T14:08:58;0.80;;;0.50;;
67528;SDS011;54366;51.980;5.856;2022-07-05T14:11:25;1.88;;;0.50;;
67528;SDS011;54366;51.980;5.856;2022-07-05T14:13:52;1.40;;;0.43;;
67528;SDS011;54366;51.980;5.856;2022-07-05T14:16:22;1.50;;;0.38;;
67528;SDS011;54366;51.980;5.856;2022-07-05T14:18:49;0.65;;;0.30;;
67528;SDS011;54366;51.980;5.856;2022-07-05T14:21:16;1.25;;;0.30;;
67528;SDS011;54366;51.980;5.856;2022-07-05T14:23:44;1.33;;;0.30;;
67528;SDS011;54366;51.980;5.856;2022-07-05T14:26:12;0.77;;;0.40;;
67528;SDS011;54366;51.980;5.856;2022-07-05T14:28:39;1.08;;;0.40;;
67528;SDS011;54366;51.980;5.856;2022-07-05T14:31:05;1.15;;;0.30;;
67528;SDS011;54366;51.980;5.856;2022-07-05T14:33:32;1.05;;;0.40;;
67528;SDS011;54366;51.980;5.856;2022-07-05T14:35:58;1.08;;;0.40;;
67528;SDS011;54366;51.980;5.856;2022-07-05T14:38:24;0.57;;;0.30;;
67528;SDS011;54366;51.980;5.856;2022-07-05T14:40:51;0.80;;;0.40;;
67528;SDS011;54366;51.980;5.856;2022-07-05T14:43:17;1.00;;;0.20;;
67528;SDS011;54366;51.980;5.856;2022-07-05T14:45:43;0.95;;;0.40;;
67528;SDS011;54366;51.980;5.856;2022-07-05T14:48:09;0.63;;;0.40;;
67528;SDS011;54366;51.980;5.856;2022-07-05T14:50:35;1.13;;;0.22;;
67528;SDS011;54366;51.980;5.856;2022-07-05T14:53:01;0.50;;;0.20;;
67528;SDS011;54366;51.980;5.856;2022-07-05T14:55:34;0.50;;;0.30;;
67528;SDS011;54366;51.980;5.856;2022-07-05T14:58:01;0.63;;;0.30;;
67528;SDS011;54366;51.980;5.856;2022-07-05T15:00:27;0.60;;;0.28;;
67528;SDS011;54366;51.980;5.856;2022-07-05T15:02:54;0.75;;;0.30;;
67528;SDS011;54366;51.980;5.856;2022-07-05T15:05:20;1.80;;;0.30;;
67528;SDS011;54366;51.980;5.856;2022-07-05T15:07:46;1.05;;;0.30;;
67528;SDS011;54366;51.980;5.856;2022-07-05T15:10:13;3.30;;;0.43;;
67528;SDS011;54366;51.980;5.856;2022-07-05T15:12:39;0.47;;;0.20;;
67528;SDS011;54366;51.980;5.856;2022-07-05T15:15:05;1.83;;;0.50;;
67528;SDS011;54366;51.980;5.856;2022-07-05T15:17:32;1.20;;;0.30;;
67528;SDS011;54366;51.980;5.856;2022-07-05T15:19:59;1.10;;;0.32;;
67528;SDS011;54366;51.980;5.856;2022-07-05T15:22:26;1.35;;;0.40;;
67528;SDS011;54366;51.980;5.856;2022-07-05T15:24:52;0.60;;;0.40;;